»·PEaware :: UAL1270 KSFO-KPHX

UAL1270 :: KSFO-KPHX

FLIGHT INFORMATION

Flight Status: Arrived
Operator:
United Airlines
More flights by this operator :: More flights under this callsign
Pilot: Saso K. (7898)
Aircraft: BOEING 737-300
(B733)
More flights by this aircraft type
Origin: KSFO San Francisco Intl
United States
Destination: KPHX Phoenix Sky Harbor Intl
United States
More flights between these airports :: More routes between these airports
Route: SSTIK3 LOSHN BOILE BLH HYDRR1
File this flight plan on PilotEdge
Remarks:
Altitude:
(Current/Filed)
37,000ft
Speed:
(Current/Filed)
415kts
Departed: 06-Jan-17 02:43 PM
Arrived: 06-Jan-17 04:21 PM
Distance/Time
Traveled:
565nm/1:38
Distance/Time
To Go:
Arrived

Flight Plot

Page will automatically refresh every two minutes.


Map Options




Map Legend


Flown Route
Filed Route
Departure Airport
Arrival Airport
Navaid (VOR, NDB)
Fix

Horizontal Profiles

Position Reports

Time Latitude Longitude Heading Altitude Ground
Speed
06-Jan-17 14:17 37.617680 -122.388830 159 30ft 0kts
06-Jan-17 14:18 37.617680 -122.388830 159 30ft 0kts
06-Jan-17 14:19 37.617680 -122.388830 159 30ft 0kts
06-Jan-17 14:20 37.617680 -122.388830 159 30ft 0kts
06-Jan-17 14:21 37.617680 -122.388830 159 30ft 0kts
06-Jan-17 14:22 37.617680 -122.388830 159 30ft 0kts
06-Jan-17 14:23 37.617680 -122.388830 159 30ft 0kts
06-Jan-17 14:24 37.617680 -122.388830 159 30ft 0kts
06-Jan-17 14:25 37.617680 -122.388830 159 30ft 0kts
06-Jan-17 14:26 37.617680 -122.388830 159 30ft 0kts
06-Jan-17 14:27 37.617680 -122.388830 159 30ft 0kts
06-Jan-17 14:28 37.617680 -122.388830 159 30ft 0kts
06-Jan-17 14:29 37.617680 -122.388830 159 30ft 0kts
06-Jan-17 14:30 37.617680 -122.388830 159 30ft 0kts
06-Jan-17 14:31 37.617810 -122.388893 159 30ft 2kts
06-Jan-17 14:32 37.618436 -122.389196 159 30ft 2kts
06-Jan-17 14:33 37.618575 -122.389529 297 30ft 2kts
06-Jan-17 14:34 37.618885 -122.390269 297 30ft 2kts
06-Jan-17 14:35 37.619205 -122.391014 297 30ft 2kts
06-Jan-17 14:36 37.619299 -122.391240 297 30ft 0kts
06-Jan-17 14:37 37.620511 -122.392203 27 30ft 11kts
06-Jan-17 14:38 37.622069 -122.387747 117 29ft 19kts
06-Jan-17 14:39 37.619462 -122.381536 118 30ft 20kts
06-Jan-17 14:40 37.614783 -122.380866 208 30ft 20kts
06-Jan-17 14:41 37.610085 -122.384031 214 30ft 10kts
06-Jan-17 14:42 37.608769 -122.382381 34 28ft 7kts
06-Jan-17 14:43 37.630067 -122.368413 28 468ft 164kts
06-Jan-17 14:44 37.678220 -122.361213 3 2724ft 206kts
06-Jan-17 14:45 37.692403 -122.414358 210 5428ft 233kts
06-Jan-17 14:46 37.631261 -122.433243 193 7791ft 263kts
06-Jan-17 14:47 37.563728 -122.452324 195 10372ft 286kts
06-Jan-17 14:48 37.478926 -122.452518 146 12128ft 352kts
06-Jan-17 14:49 37.414262 -122.357989 131 14692ft 377kts
06-Jan-17 14:50 37.349578 -122.257707 132 17052ft 397kts
06-Jan-17 14:51 37.281098 -122.151732 132 19209ft 416kts
06-Jan-17 14:52 37.211156 -122.043827 133 21153ft 434kts
06-Jan-17 14:53 37.140932 -121.935848 133 22880ft 450kts
06-Jan-17 14:54 37.068391 -121.824663 134 24545ft 464kts
06-Jan-17 14:55 36.989927 -121.704828 135 26213ft 477kts
06-Jan-17 14:56 36.911942 -121.586165 135 27637ft 490kts
06-Jan-17 14:57 36.839566 -121.476364 135 29210ft 492kts
06-Jan-17 14:58 36.754633 -121.348029 137 30986ft 492kts
06-Jan-17 14:59 36.688476 -121.248375 137 32209ft 491kts
06-Jan-17 15:00 36.603222 -121.120438 137 33561ft 491kts
06-Jan-17 15:01 36.518182 -120.993299 136 34583ft 496kts
06-Jan-17 15:02 36.434603 -120.870237 136 35516ft 499kts
06-Jan-17 15:03 36.349718 -120.743443 135 36471ft 500kts
06-Jan-17 15:04 36.263922 -120.615495 135 37177ft 498kts
06-Jan-17 15:05 36.180780 -120.491971 135 37116ft 492kts
06-Jan-17 15:06 36.098320 -120.369953 135 37138ft 494kts
06-Jan-17 15:07 36.022896 -120.258680 136 37170ft 492kts
06-Jan-17 15:08 35.943029 -120.141288 136 37181ft 493kts
06-Jan-17 15:09 35.877446 -120.045180 136 37178ft 493kts
06-Jan-17 15:10 35.807193 -119.942722 137 37185ft 492kts
06-Jan-17 15:11 35.732481 -119.836219 137 37164ft 492kts
06-Jan-17 15:12 35.646170 -119.713845 137 37163ft 492kts
06-Jan-17 15:13 35.558652 -119.590165 137 37162ft 492kts
06-Jan-17 15:14 35.471395 -119.467325 137 37166ft 491kts
06-Jan-17 15:15 35.384276 -119.345076 138 37168ft 491kts
06-Jan-17 15:16 35.323999 -119.260784 138 37161ft 490kts
06-Jan-17 15:17 35.235639 -119.137582 137 37144ft 492kts
06-Jan-17 15:18 35.146493 -119.013716 138 37138ft 492kts
06-Jan-17 15:19 35.057353 -118.890321 137 37143ft 491kts
06-Jan-17 15:20 34.969560 -118.769216 138 37145ft 492kts
06-Jan-17 15:21 34.888644 -118.657986 138 37146ft 497kts
06-Jan-17 15:22 34.857646 -118.615463 138 37150ft 498kts
06-Jan-17 15:23 34.782860 -118.513070 139 37160ft 496kts
06-Jan-17 15:24 34.691731 -118.388739 139 37184ft 498kts
06-Jan-17 15:25 34.640965 -118.319648 139 37166ft 496kts
06-Jan-17 15:26 34.558512 -118.207765 139 37172ft 496kts
06-Jan-17 15:27 34.469204 -118.086960 140 37163ft 496kts
06-Jan-17 15:28 34.400973 -117.947713 103 37163ft 517kts
06-Jan-17 15:29 34.366225 -117.787043 108 37139ft 516kts
06-Jan-17 15:30 34.328451 -117.630414 108 37140ft 516kts
06-Jan-17 15:31 34.290224 -117.472106 107 37131ft 516kts
06-Jan-17 15:32 34.253758 -117.322032 108 37108ft 515kts
06-Jan-17 15:33 34.214460 -117.161325 108 37109ft 516kts
06-Jan-17 15:34 34.175021 -117.001004 108 37115ft 514kts
06-Jan-17 15:35 34.134742 -116.838284 108 37109ft 512kts
06-Jan-17 15:36 34.094471 -116.676647 108 37144ft 512kts
06-Jan-17 15:37 34.053846 -116.514583 109 37160ft 513kts
06-Jan-17 15:38 34.013101 -116.353023 109 37165ft 512kts
06-Jan-17 15:39 33.974581 -116.201241 109 37171ft 513kts
06-Jan-17 15:40 33.933252 -116.039308 110 37151ft 512kts
06-Jan-17 15:41 33.896801 -115.897342 109 37133ft 512kts
06-Jan-17 15:42 33.859268 -115.751869 109 37138ft 513kts
06-Jan-17 15:43 33.818101 -115.593304 109 37132ft 512kts
06-Jan-17 15:44 33.775844 -115.431474 108 37134ft 512kts
06-Jan-17 15:45 33.735448 -115.277619 110 37163ft 512kts
06-Jan-17 15:46 33.693369 -115.118324 109 37193ft 513kts
06-Jan-17 15:47 33.650302 -114.956242 109 37194ft 517kts
06-Jan-17 15:48 33.607465 -114.795960 109 37188ft 516kts
06-Jan-17 15:49 33.570520 -114.632335 103 36980ft 519kts
06-Jan-17 15:50 33.537564 -114.461818 103 33734ft 536kts
06-Jan-17 15:51 33.508987 -114.316081 103 31207ft 534kts
06-Jan-17 15:52 33.475653 -114.147263 103 28987ft 511kts
06-Jan-17 15:53 33.443543 -113.986566 102 26874ft 489kts
06-Jan-17 15:54 33.414278 -113.832867 101 24846ft 468kts
06-Jan-17 15:55 33.385786 -113.685773 102 22852ft 449kts
06-Jan-17 15:56 33.356674 -113.545419 102 20918ft 431kts
06-Jan-17 15:57 33.329534 -113.410075 98 19046ft 412kts
06-Jan-17 15:58 33.310412 -113.295892 100 17444ft 397kts
06-Jan-17 15:59 33.289891 -113.169804 98 15631ft 380kts
06-Jan-17 16:00 33.275068 -113.049740 85 15062ft 355kts
06-Jan-17 16:01 33.279515 -112.934677 85 15025ft 349kts
06-Jan-17 16:02 33.282521 -112.820150 84 15027ft 344kts
06-Jan-17 16:03 33.291238 -112.707643 81 15026ft 343kts
06-Jan-17 16:04 33.301603 -112.595917 80 15027ft 343kts
06-Jan-17 16:05 33.311992 -112.484070 81 13906ft 337kts
06-Jan-17 16:06 33.321741 -112.378244 82 12442ft 321kts
06-Jan-17 16:07 33.326583 -112.317727 84 11919ft 301kts
06-Jan-17 16:08 33.334396 -112.223798 83 10456ft 295kts
06-Jan-17 16:09 33.342885 -112.129027 83 9062ft 286kts
06-Jan-17 16:10 33.347124 -112.043066 89 8680ft 250kts
06-Jan-17 16:11 33.347011 -111.960240 89 7330ft 254kts
06-Jan-17 16:12 33.347976 -111.882029 89 6568ft 235kts
06-Jan-17 16:13 33.349273 -111.805056 88 5285ft 235kts
06-Jan-17 16:14 33.359220 -111.733932 38 4131ft 228kts
06-Jan-17 16:15 33.403415 -111.749671 309 3587ft 186kts
06-Jan-17 16:16 33.435584 -111.792918 304 3044ft 175kts
06-Jan-17 16:17 33.441755 -111.846834 266 2989ft 173kts
06-Jan-17 16:18 33.440637 -111.902159 269 2657ft 163kts
06-Jan-17 16:19 33.440774 -111.949814 269 1865ft 138kts
06-Jan-17 16:20 33.440812 -111.994499 269 1142ft 137kts
06-Jan-17 16:21 33.440088 -112.013572 172 1125ft 3kts
06-Jan-17 16:22 33.440006 -112.013552 164 1125ft 0kts
06-Jan-17 16:23 33.440006 -112.013552 164 1125ft 0kts
06-Jan-17 16:24 33.439749 -112.011672 90 1126ft 16kts
06-Jan-17 16:25 33.439741 -112.005257 89 1129ft 21kts
06-Jan-17 16:26 33.439732 -111.999840 88 1132ft 12kts
06-Jan-17 16:27 33.437212 -111.998275 180 1130ft 10kts
06-Jan-17 16:28 33.436551 -111.998777 268 1129ft 0kts
06-Jan-17 16:29 33.436551 -111.998777 268 1129ft 0kts
06-Jan-17 16:30 33.436551 -111.998777 268 1129ft 0kts
06-Jan-17 16:31 33.436551 -111.998777 268 1129ft 0kts
06-Jan-17 16:32 33.436551 -111.998777 268 1129ft 0kts
06-Jan-17 16:33 33.436551 -111.998777 268 1129ft 0kts

Navigation Log

Ident Type
Flight plan parsing failed, navigation log unavailable